Caseyville, IL (62232)

16:38 CST le 01 février 2015 (GMT -0600)
Tim and Carolyns yard | Change Station
CLOSE
Current Station
Stations météorologiques personnelles
Location: COLLINSVILLE, IL
Altitude: 522 ft
Stations météo à proximité

Alt. 522 ft 38.66 °N, 89.99 °W | Updated 1 second ago

Couvert
Couvert
39.2 ° F
Paraît 36 ° F
N
4.7
Vent Variable Vent de Ouest
Gusts 6.9 mph

Aujourd'hui
Haut(e) -- | Bas -- ° F
--% Risque de précip.
Hier
Haut(e) -- | Bas -- ° F
Precip. -- pouce
7:05 AM 5:21 PM
Lune gibbeuse croissante, 96% visible
Pression 29.67 pouce
Visibilité 10.0 Miles terrestres
Nuages Couvert 1300 ft
Refroidissement éolien 36 ° F
Point de rosée 36 ° F
Humidité 89%
Précipitations 0.00 pouce
Profondeur de la couche neigeuse Non disponible.
UV 0 sur 12
Pollen .10 sur 12
Qualité de l'air Non disponible.
Flu Activity Non disponible.
METAR KCPS 012153Z 30013KT 10SM OVC013 06/03 A2966 RMK AO2 SLP045 T00560028

More Conditions Fewer Conditions

Pression 29.67 pouce
Visibilité 10.0 Miles terrestres
Nuages Couvert 1300 ft
Refroidissement éolien 36 ° F
Point de rosée 36 ° F
Humidité 89%
Précipitations 0.00 pouce
Profondeur de la couche neigeuse Non disponible.
UV 0 sur 12
Pollen .10 sur 12
Qualité de l'air Non disponible.
Flu Activity Non disponible.
METAR KCPS 012153Z 30013KT 10SM OVC013 06/03 A2966 RMK AO2 SLP045 T00560028

More Conditions Fewer Conditions

10-Day Weather Forecast

Almanac

Astronomie

Feb. 01, 2015 Lever Coucher
Temps réel
Crépuscule civil
Crépuscule nautique
Crépuscule astronomique
Lune
Durée de lumière visible
Longueur du jour
Tomorrow will be .
, % of the Moon is Illuminated

Extrêmes aujourd'hui

State Highs State Lows

Community

WunderPhotos

Upload Photos

1,792,572 Photos téléchargées !

WunderBlogs® & News

Nearby

Qualité de l'air

  Qualité de l'air Indice de la qualité de l'air Polluant
Not available.

Épaisseur de neige

Station Depth Altitude

Activité sismique

Ville Distance Mag. Time & Date
Minimum magnitude displayed is 2.5.

Températures des eaux côtières

Lieu Température

Stations météo à proximité